sensor_id;sensor_type;location;lat;lon;timestamp;temperature;humidity
1976;DHT22;988;48.016;7.800;2022-11-14T00:00:01;6.50;99.90
1976;DHT22;988;48.016;7.800;2022-11-14T00:02:27;6.60;99.90
1976;DHT22;988;48.016;7.800;2022-11-14T00:04:52;6.70;99.90
1976;DHT22;988;48.016;7.800;2022-11-14T00:07:19;6.80;99.90
1976;DHT22;988;48.016;7.800;2022-11-14T00:09:45;6.70;99.90
1976;DHT22;988;48.016;7.800;2022-11-14T00:12:11;6.70;99.90
1976;DHT22;988;48.016;7.800;2022-11-14T00:14:38;6.60;99.90
1976;DHT22;988;48.016;7.800;2022-11-14T00:17:04;6.60;99.90
1976;DHT22;988;48.016;7.800;2022-11-14T00:19:30;6.80;99.90
1976;DHT22;988;48.016;7.800;2022-11-14T00:21:55;6.70;99.90
1976;DHT22;988;48.016;7.800;2022-11-14T00:24:22;6.70;99.90
1976;DHT22;988;48.016;7.800;2022-11-14T00:26:47;6.80;99.90
1976;DHT22;988;48.016;7.800;2022-11-14T00:29:14;6.90;99.90
1976;DHT22;988;48.016;7.800;2022-11-14T00:31:40;6.80;99.90
1976;DHT22;988;48.016;7.800;2022-11-14T00:34:06;6.70;99.90
1976;DHT22;988;48.016;7.800;2022-11-14T00:36:32;6.60;99.90
1976;DHT22;988;48.016;7.800;2022-11-14T00:38:58;6.60;99.90
1976;DHT22;988;48.016;7.800;2022-11-14T00:41:23;6.60;99.90
1976;DHT22;988;48.016;7.800;2022-11-14T00:43:49;6.40;99.90
1976;DHT22;988;48.016;7.800;2022-11-14T00:46:15;6.30;99.90
1976;DHT22;988;48.016;7.800;2022-11-14T00:48:41;6.10;99.90
1976;DHT22;988;48.016;7.800;2022-11-14T00:51:08;6.40;99.90
1976;DHT22;988;48.016;7.800;2022-11-14T00:53:33;6.70;99.90
1976;DHT22;988;48.016;7.800;2022-11-14T00:55:59;6.60;99.90
1976;DHT22;988;48.016;7.800;2022-11-14T00:58:28;6.60;99.90
1976;DHT22;988;48.016;7.800;2022-11-14T01:00:54;6.40;99.90
1976;DHT22;988;48.016;7.800;2022-11-14T01:03:20;6.50;99.90
1976;DHT22;988;48.016;7.800;2022-11-14T01:05:50;6.50;99.90
1976;DHT22;988;48.016;7.800;2022-11-14T01:08:17;6.50;99.90
1976;DHT22;988;48.016;7.800;2022-11-14T01:10:46;6.50;99.90
1976;DHT22;988;48.016;7.800;2022-11-14T01:13:12;6.50;99.90
1976;DHT22;988;48.016;7.800;2022-11-14T01:15:43;6.60;99.90
1976;DHT22;988;48.016;7.800;2022-11-14T01:18:10;6.50;99.90
1976;DHT22;988;48.016;7.800;2022-11-14T01:20:41;6.50;99.90
1976;DHT22;988;48.016;7.800;2022-11-14T01:23:08;6.60;99.90
1976;DHT22;988;48.016;7.800;2022-11-14T01:25:35;6.50;99.90
1976;DHT22;988;48.016;7.800;2022-11-14T01:28:01;6.50;99.90
1976;DHT22;988;48.016;7.800;2022-11-14T01:30:29;6.70;99.90
1976;DHT22;988;48.016;7.800;2022-11-14T01:32:55;6.50;99.90
1976;DHT22;988;48.016;7.800;2022-11-14T01:35:20;6.50;99.90
1976;DHT22;988;48.016;7.800;2022-11-14T01:37:46;6.40;99.90
1976;DHT22;988;48.016;7.800;2022-11-14T01:40:11;6.50;99.90
1976;DHT22;988;48.016;7.800;2022-11-14T01:42:37;6.60;99.90
1976;DHT22;988;48.016;7.800;2022-11-14T01:48:21;6.50;99.90
1976;DHT22;988;48.016;7.800;2022-11-14T01:50:57;6.60;99.90
1976;DHT22;988;48.016;7.800;2022-11-14T01:53:23;6.60;99.90
1976;DHT22;988;48.016;7.800;2022-11-14T01:55:49;6.60;99.90
1976;DHT22;988;48.016;7.800;2022-11-14T01:58:16;6.50;99.90
1976;DHT22;988;48.016;7.800;2022-11-14T02:00:42;6.30;99.90
1976;DHT22;988;48.016;7.800;2022-11-14T02:03:10;6.40;99.90
1976;DHT22;988;48.016;7.800;2022-11-14T02:05:36;6.40;99.90
1976;DHT22;988;48.016;7.800;2022-11-14T02:08:02;6.30;99.90
1976;DHT22;988;48.016;7.800;2022-11-14T02:10:28;6.30;99.90
1976;DHT22;988;48.016;7.800;2022-11-14T02:12:54;6.40;99.90
1976;DHT22;988;48.016;7.800;2022-11-14T02:15:19;6.30;99.90
1976;DHT22;988;48.016;7.800;2022-11-14T02:17:45;6.40;99.90
1976;DHT22;988;48.016;7.800;2022-11-14T02:22:37;6.40;99.90
1976;DHT22;988;48.016;7.800;2022-11-14T02:25:04;6.30;99.90
1976;DHT22;988;48.016;7.800;2022-11-14T02:27:32;6.40;99.90
1976;DHT22;988;48.016;7.800;2022-11-14T02:30:11;6.20;99.90
1976;DHT22;988;48.016;7.800;2022-11-14T02:32:37;6.30;99.90
1976;DHT22;988;48.016;7.800;2022-11-14T02:35:02;6.30;99.90
1976;DHT22;988;48.016;7.800;2022-11-14T02:37:28;6.20;99.90
1976;DHT22;988;48.016;7.800;2022-11-14T02:39:53;6.30;99.90
1976;DHT22;988;48.016;7.800;2022-11-14T02:42:19;6.50;99.90
1976;DHT22;988;48.016;7.800;2022-11-14T02:44:45;6.50;99.90
1976;DHT22;988;48.016;7.800;2022-11-14T02:47:10;6.30;99.90
1976;DHT22;988;48.016;7.800;2022-11-14T02:49:36;6.40;99.90
1976;DHT22;988;48.016;7.800;2022-11-14T02:52:01;6.40;99.90
1976;DHT22;988;48.016;7.800;2022-11-14T02:54:27;6.50;99.90
1976;DHT22;988;48.016;7.800;2022-11-14T02:56:52;6.60;99.90
1976;DHT22;988;48.016;7.800;2022-11-14T02:59:18;6.50;99.90
1976;DHT22;988;48.016;7.800;2022-11-14T03:01:43;6.50;99.90
1976;DHT22;988;48.016;7.800;2022-11-14T03:04:09;6.40;99.90
1976;DHT22;988;48.016;7.800;2022-11-14T03:06:35;6.30;99.90
1976;DHT22;988;48.016;7.800;2022-11-14T03:09:00;6.20;99.90
1976;DHT22;988;48.016;7.800;2022-11-14T03:11:26;6.20;99.90
1976;DHT22;988;48.016;7.800;2022-11-14T03:13:52;6.10;99.90
1976;DHT22;988;48.016;7.800;2022-11-14T03:16:17;5.90;99.90
1976;DHT22;988;48.016;7.800;2022-11-14T03:18:43;5.70;99.90
1976;DHT22;988;48.016;7.800;2022-11-14T03:21:14;5.60;99.90
1976;DHT22;988;48.016;7.800;2022-11-14T03:23:40;5.80;99.90
1976;DHT22;988;48.016;7.800;2022-11-14T03:26:08;5.90;99.90
1976;DHT22;988;48.016;7.800;2022-11-14T03:28:35;6.00;99.90
1976;DHT22;988;48.016;7.800;2022-11-14T03:31:01;6.10;99.90
1976;DHT22;988;48.016;7.800;2022-11-14T03:33:27;6.20;99.90
1976;DHT22;988;48.016;7.800;2022-11-14T03:35:52;6.30;99.90
1976;DHT22;988;48.016;7.800;2022-11-14T03:38:19;6.20;99.90
1976;DHT22;988;48.016;7.800;2022-11-14T03:40:50;6.00;99.90
1976;DHT22;988;48.016;7.800;2022-11-14T03:43:17;6.10;99.90
1976;DHT22;988;48.016;7.800;2022-11-14T03:45:43;6.00;99.90
1976;DHT22;988;48.016;7.800;2022-11-14T03:48:08;6.20;99.90
1976;DHT22;988;48.016;7.800;2022-11-14T03:50:34;5.90;99.90
1976;DHT22;988;48.016;7.800;2022-11-14T03:53:00;5.70;99.90
1976;DHT22;988;48.016;7.800;2022-11-14T03:55:25;5.90;99.90
1976;DHT22;988;48.016;7.800;2022-11-14T03:57:51;6.00;99.90
1976;DHT22;988;48.016;7.800;2022-11-14T04:00:17;5.90;99.90
1976;DHT22;988;48.016;7.800;2022-11-14T04:02:43;5.90;99.90
1976;DHT22;988;48.016;7.800;2022-11-14T04:05:09;6.00;99.90
1976;DHT22;988;48.016;7.800;2022-11-14T04:07:36;6.10;99.90
1976;DHT22;988;48.016;7.800;2022-11-14T04:10:02;6.00;99.90
1976;DHT22;988;48.016;7.800;2022-11-14T04:12:28;5.90;99.90
1976;DHT22;988;48.016;7.800;2022-11-14T04:14:53;5.90;99.90
1976;DHT22;988;48.016;7.800;2022-11-14T04:17:19;5.90;99.90
1976;DHT22;988;48.016;7.800;2022-11-14T04:19:44;6.10;99.90
1976;DHT22;988;48.016;7.800;2022-11-14T04:22:10;6.00;99.90
1976;DHT22;988;48.016;7.800;2022-11-14T04:24:36;6.00;99.90
1976;DHT22;988;48.016;7.800;2022-11-14T04:27:01;6.10;99.90
1976;DHT22;988;48.016;7.800;2022-11-14T04:29:27;6.10;99.90
1976;DHT22;988;48.016;7.800;2022-11-14T04:31:52;6.20;99.90
1976;DHT22;988;48.016;7.800;2022-11-14T04:34:18;6.20;99.90
1976;DHT22;988;48.016;7.800;2022-11-14T04:36:43;6.30;99.90
1976;DHT22;988;48.016;7.800;2022-11-14T04:39:09;6.40;99.90
1976;DHT22;988;48.016;7.800;2022-11-14T04:41:34;6.50;99.90
1976;DHT22;988;48.016;7.800;2022-11-14T04:44:00;6.40;99.90
1976;DHT22;988;48.016;7.800;2022-11-14T04:46:26;6.20;99.90
1976;DHT22;988;48.016;7.800;2022-11-14T04:48:51;6.20;99.90
1976;DHT22;988;48.016;7.800;2022-11-14T04:51:17;6.20;99.90
1976;DHT22;988;48.016;7.800;2022-11-14T04:53:43;6.20;99.90
1976;DHT22;988;48.016;7.800;2022-11-14T04:56:09;6.20;99.90
1976;DHT22;988;48.016;7.800;2022-11-14T04:58:34;6.20;99.90
1976;DHT22;988;48.016;7.800;2022-11-14T05:01:09;6.30;99.90
1976;DHT22;988;48.016;7.800;2022-11-14T05:03:35;6.20;99.90
1976;DHT22;988;48.016;7.800;2022-11-14T05:06:02;6.30;99.90
1976;DHT22;988;48.016;7.800;2022-11-14T05:08:28;6.20;99.90
1976;DHT22;988;48.016;7.800;2022-11-14T05:10:53;6.20;99.90
1976;DHT22;988;48.016;7.800;2022-11-14T05:13:19;6.10;99.90
1976;DHT22;988;48.016;7.800;2022-11-14T05:15:45;6.00;99.90
1976;DHT22;988;48.016;7.800;2022-11-14T05:18:10;6.00;99.90
1976;DHT22;988;48.016;7.800;2022-11-14T05:20:36;6.20;99.90
1976;DHT22;988;48.016;7.800;2022-11-14T05:23:01;6.10;99.90
1976;DHT22;988;48.016;7.800;2022-11-14T05:25:27;6.10;99.90
1976;DHT22;988;48.016;7.800;2022-11-14T05:27:53;6.10;99.90
1976;DHT22;988;48.016;7.800;2022-11-14T05:30:18;6.20;99.90
1976;DHT22;988;48.016;7.800;2022-11-14T05:32:44;6.40;99.90
1976;DHT22;988;48.016;7.800;2022-11-14T05:35:10;6.30;99.90
1976;DHT22;988;48.016;7.800;2022-11-14T05:37:36;6.40;99.90
1976;DHT22;988;48.016;7.800;2022-11-14T05:40:02;6.30;99.90
1976;DHT22;988;48.016;7.800;2022-11-14T05:42:28;6.40;99.90
1976;DHT22;988;48.016;7.800;2022-11-14T05:44:54;6.50;99.90
1976;DHT22;988;48.016;7.800;2022-11-14T05:47:20;6.40;99.90
1976;DHT22;988;48.016;7.800;2022-11-14T05:49:45;6.60;99.90
1976;DHT22;988;48.016;7.800;2022-11-14T05:52:11;6.60;99.90
1976;DHT22;988;48.016;7.800;2022-11-14T05:54:37;6.50;99.90
1976;DHT22;988;48.016;7.800;2022-11-14T05:57:03;6.60;99.90
1976;DHT22;988;48.016;7.800;2022-11-14T05:59:29;6.60;99.90
1976;DHT22;988;48.016;7.800;2022-11-14T06:01:54;6.70;99.90
1976;DHT22;988;48.016;7.800;2022-11-14T06:04:20;6.70;99.90
1976;DHT22;988;48.016;7.800;2022-11-14T06:06:45;6.80;99.90
1976;DHT22;988;48.016;7.800;2022-11-14T06:09:11;6.70;99.90
1976;DHT22;988;48.016;7.800;2022-11-14T06:11:36;6.70;99.90
1976;DHT22;988;48.016;7.800;2022-11-14T06:14:02;6.80;99.90
1976;DHT22;988;48.016;7.800;2022-11-14T06:16:28;6.80;99.90
1976;DHT22;988;48.016;7.800;2022-11-14T06:18:54;6.60;99.90
1976;DHT22;988;48.016;7.800;2022-11-14T06:21:21;6.80;99.90
1976;DHT22;988;48.016;7.800;2022-11-14T06:23:48;6.50;99.90
1976;DHT22;988;48.016;7.800;2022-11-14T06:26:29;6.60;99.90
1976;DHT22;988;48.016;7.800;2022-11-14T06:28:54;6.60;99.90
1976;DHT22;988;48.016;7.800;2022-11-14T06:31:21;6.70;99.90
1976;DHT22;988;48.016;7.800;2022-11-14T06:33:47;6.80;99.90
1976;DHT22;988;48.016;7.800;2022-11-14T06:36:13;6.80;99.90
1976;DHT22;988;48.016;7.800;2022-11-14T06:38:40;6.80;99.90
1976;DHT22;988;48.016;7.800;2022-11-14T06:41:11;6.80;99.90
1976;DHT22;988;48.016;7.800;2022-11-14T06:43:40;6.90;99.90
1976;DHT22;988;48.016;7.800;2022-11-14T06:46:07;7.00;99.90
1976;DHT22;988;48.016;7.800;2022-11-14T06:48:34;6.90;99.90
1976;DHT22;988;48.016;7.800;2022-11-14T06:51:01;6.90;99.90
1976;DHT22;988;48.016;7.800;2022-11-14T06:53:29;7.00;99.90
1976;DHT22;988;48.016;7.800;2022-11-14T06:56:06;7.00;99.90
1976;DHT22;988;48.016;7.800;2022-11-14T06:58:35;7.10;99.90
1976;DHT22;988;48.016;7.800;2022-11-14T07:01:05;7.10;99.90
1976;DHT22;988;48.016;7.800;2022-11-14T07:03:32;7.30;99.90
1976;DHT22;988;48.016;7.800;2022-11-14T07:05:59;7.30;99.90
1976;DHT22;988;48.016;7.800;2022-11-14T07:08:25;7.40;99.90
1976;DHT22;988;48.016;7.800;2022-11-14T07:10:50;7.30;99.90
1976;DHT22;988;48.016;7.800;2022-11-14T07:13:16;7.50;99.90
1976;DHT22;988;48.016;7.800;2022-11-14T07:15:49;7.60;99.90
1976;DHT22;988;48.016;7.800;2022-11-14T07:18:15;7.50;99.90
1976;DHT22;988;48.016;7.800;2022-11-14T07:20:41;7.70;99.90
1976;DHT22;988;48.016;7.800;2022-11-14T07:23:06;7.70;99.90
1976;DHT22;988;48.016;7.800;2022-11-14T07:25:32;7.60;99.90
1976;DHT22;988;48.016;7.800;2022-11-14T07:27:57;7.90;99.90
1976;DHT22;988;48.016;7.800;2022-11-14T07:30:23;7.90;99.90
1976;DHT22;988;48.016;7.800;2022-11-14T07:32:58;8.10;99.90
1976;DHT22;988;48.016;7.800;2022-11-14T07:35:24;8.10;99.90
1976;DHT22;988;48.016;7.800;2022-11-14T07:37:50;8.30;99.90
1976;DHT22;988;48.016;7.800;2022-11-14T07:40:17;8.20;99.90
1976;DHT22;988;48.016;7.800;2022-11-14T07:42:43;8.40;99.90
1976;DHT22;988;48.016;7.800;2022-11-14T07:45:09;8.40;99.90
1976;DHT22;988;48.016;7.800;2022-11-14T07:47:35;8.30;99.90
1976;DHT22;988;48.016;7.800;2022-11-14T07:50:01;8.30;99.90
1976;DHT22;988;48.016;7.800;2022-11-14T07:52:26;8.40;99.90
1976;DHT22;988;48.016;7.800;2022-11-14T07:54:52;8.40;99.90
1976;DHT22;988;48.016;7.800;2022-11-14T07:57:17;8.50;99.90
1976;DHT22;988;48.016;7.800;2022-11-14T07:59:43;8.80;99.90
1976;DHT22;988;48.016;7.800;2022-11-14T08:02:13;8.70;99.90
1976;DHT22;988;48.016;7.800;2022-11-14T08:04:40;8.90;99.90
1976;DHT22;988;48.016;7.800;2022-11-14T08:07:06;8.90;99.90
1976;DHT22;988;48.016;7.800;2022-11-14T08:09:31;9.00;99.90
1976;DHT22;988;48.016;7.800;2022-11-14T08:11:57;9.10;99.90
1976;DHT22;988;48.016;7.800;2022-11-14T08:14:22;9.20;99.90
1976;DHT22;988;48.016;7.800;2022-11-14T08:16:49;8.90;99.90
1976;DHT22;988;48.016;7.800;2022-11-14T08:19:15;9.30;99.90
1976;DHT22;988;48.016;7.800;2022-11-14T08:21:41;9.40;99.90
1976;DHT22;988;48.016;7.800;2022-11-14T08:24:07;9.10;99.90
1976;DHT22;988;48.016;7.800;2022-11-14T08:26:32;9.40;99.90
1976;DHT22;988;48.016;7.800;2022-11-14T08:28:58;9.40;99.90
1976;DHT22;988;48.016;7.800;2022-11-14T08:31:24;9.50;99.90
1976;DHT22;988;48.016;7.800;2022-11-14T08:33:51;9.30;99.90
1976;DHT22;988;48.016;7.800;2022-11-14T08:36:16;9.30;99.90
1976;DHT22;988;48.016;7.800;2022-11-14T08:38:42;9.10;99.90
1976;DHT22;988;48.016;7.800;2022-11-14T08:41:08;9.30;99.90
1976;DHT22;988;48.016;7.800;2022-11-14T08:43:34;9.40;99.90
1976;DHT22;988;48.016;7.800;2022-11-14T08:46:01;9.30;99.90
1976;DHT22;988;48.016;7.800;2022-11-14T08:48:26;9.30;99.90
1976;DHT22;988;48.016;7.800;2022-11-14T08:50:52;9.60;99.90
1976;DHT22;988;48.016;7.800;2022-11-14T08:53:18;9.40;99.90
1976;DHT22;988;48.016;7.800;2022-11-14T08:55:45;9.50;99.90
1976;DHT22;988;48.016;7.800;2022-11-14T08:58:10;9.80;99.90
1976;DHT22;988;48.016;7.800;2022-11-14T09:00:36;9.60;99.90
1976;DHT22;988;48.016;7.800;2022-11-14T09:03:07;9.60;99.90
1976;DHT22;988;48.016;7.800;2022-11-14T09:05:33;9.90;99.90
1976;DHT22;988;48.016;7.800;2022-11-14T09:07:59;10.00;99.90
1976;DHT22;988;48.016;7.800;2022-11-14T09:10:24;9.70;99.90
1976;DHT22;988;48.016;7.800;2022-11-14T09:12:57;10.00;99.90
1976;DHT22;988;48.016;7.800;2022-11-14T09:15:23;10.00;99.90
1976;DHT22;988;48.016;7.800;2022-11-14T09:17:52;9.90;99.90
1976;DHT22;988;48.016;7.800;2022-11-14T09:20:20;10.00;99.90
1976;DHT22;988;48.016;7.800;2022-11-14T09:22:45;10.00;99.90
1976;DHT22;988;48.016;7.800;2022-11-14T09:25:11;10.20;99.90
1976;DHT22;988;48.016;7.800;2022-11-14T09:27:37;10.10;99.90
1976;DHT22;988;48.016;7.800;2022-11-14T09:30:04;10.10;99.90
1976;DHT22;988;48.016;7.800;2022-11-14T09:32:29;10.10;99.90
1976;DHT22;988;48.016;7.800;2022-11-14T09:34:55;10.20;99.90
1976;DHT22;988;48.016;7.800;2022-11-14T09:37:20;10.20;99.90
1976;DHT22;988;48.016;7.800;2022-11-14T09:39:46;10.20;99.90
1976;DHT22;988;48.016;7.800;2022-11-14T09:42:46;10.10;99.90
1976;DHT22;988;48.016;7.800;2022-11-14T09:45:15;10.10;99.90
1976;DHT22;988;48.016;7.800;2022-11-14T09:47:44;10.40;99.90
1976;DHT22;988;48.016;7.800;2022-11-14T09:50:17;10.20;99.90
1976;DHT22;988;48.016;7.800;2022-11-14T09:52:56;10.30;99.90
1976;DHT22;988;48.016;7.800;2022-11-14T09:55:28;10.40;99.90
1976;DHT22;988;48.016;7.800;2022-11-14T09:57:54;10.50;99.90
1976;DHT22;988;48.016;7.800;2022-11-14T10:00:23;10.60;99.90
1976;DHT22;988;48.016;7.800;2022-11-14T10:05:28;10.40;99.90
1976;DHT22;988;48.016;7.800;2022-11-14T10:08:23;10.40;99.90
1976;DHT22;988;48.016;7.800;2022-11-14T10:11:05;10.50;99.90
1976;DHT22;988;48.016;7.800;2022-11-14T10:16:38;10.60;99.90
1976;DHT22;988;48.016;7.800;2022-11-14T10:25:08;10.80;99.90
1976;DHT22;988;48.016;7.800;2022-11-14T10:30:20;10.70;99.90
1976;DHT22;988;48.016;7.800;2022-11-14T10:33:04;11.10;99.90
1976;DHT22;988;48.016;7.800;2022-11-14T10:38:34;11.00;99.90
1976;DHT22;988;48.016;7.800;2022-11-14T10:41:04;10.90;99.90
1976;DHT22;988;48.016;7.800;2022-11-14T10:43:45;10.80;99.90
1976;DHT22;988;48.016;7.800;2022-11-14T10:46:28;11.20;99.90
1976;DHT22;988;48.016;7.800;2022-11-14T10:48:55;11.10;99.90
1976;DHT22;988;48.016;7.800;2022-11-14T10:51:28;11.20;99.90
1976;DHT22;988;48.016;7.800;2022-11-14T10:54:14;11.20;99.90
1976;DHT22;988;48.016;7.800;2022-11-14T10:56:48;11.30;99.90
1976;DHT22;988;48.016;7.800;2022-11-14T10:59:14;11.30;99.90
1976;DHT22;988;48.016;7.800;2022-11-14T11:01:41;11.10;99.90
1976;DHT22;988;48.016;7.800;2022-11-14T11:09:38;11.50;99.90
1976;DHT22;988;48.016;7.800;2022-11-14T11:12:37;11.70;99.90
1976;DHT22;988;48.016;7.800;2022-11-14T11:15:22;11.90;99.90
1976;DHT22;988;48.016;7.800;2022-11-14T11:18:14;11.90;99.90
1976;DHT22;988;48.016;7.800;2022-11-14T11:21:04;11.90;99.90
1976;DHT22;988;48.016;7.800;2022-11-14T11:23:30;12.10;99.90
1976;DHT22;988;48.016;7.800;2022-11-14T11:26:01;12.20;99.90
1976;DHT22;988;48.016;7.800;2022-11-14T11:28:34;12.40;99.90
1976;DHT22;988;48.016;7.800;2022-11-14T11:31:02;12.60;99.90
1976;DHT22;988;48.016;7.800;2022-11-14T11:33:36;12.50;99.90
1976;DHT22;988;48.016;7.800;2022-11-14T11:36:19;12.50;99.90
1976;DHT22;988;48.016;7.800;2022-11-14T11:38:46;12.70;99.90
1976;DHT22;988;48.016;7.800;2022-11-14T11:41:26;12.80;99.90
1976;DHT22;988;48.016;7.800;2022-11-14T11:44:14;12.80;99.90
1976;DHT22;988;48.016;7.800;2022-11-14T11:46:54;12.80;99.90
1976;DHT22;988;48.016;7.800;2022-11-14T11:51:55;12.60;99.90
1976;DHT22;988;48.016;7.800;2022-11-14T11:54:27;12.50;99.90
1976;DHT22;988;48.016;7.800;2022-11-14T11:56:55;12.50;99.90
1976;DHT22;988;48.016;7.800;2022-11-14T11:59:34;12.70;99.90
1976;DHT22;988;48.016;7.800;2022-11-14T12:02:08;12.80;99.90
1976;DHT22;988;48.016;7.800;2022-11-14T12:04:40;13.00;99.90
1976;DHT22;988;48.016;7.800;2022-11-14T12:07:21;12.90;99.90
1976;DHT22;988;48.016;7.800;2022-11-14T12:09:49;13.10;99.90
1976;DHT22;988;48.016;7.800;2022-11-14T12:18:05;13.20;99.90
1976;DHT22;988;48.016;7.800;2022-11-14T12:20:50;13.10;99.90
1976;DHT22;988;48.016;7.800;2022-11-14T12:26:48;13.30;99.90
1976;DHT22;988;48.016;7.800;2022-11-14T12:29:25;13.20;99.90
1976;DHT22;988;48.016;7.800;2022-11-14T12:32:01;13.20;99.90
1976;DHT22;988;48.016;7.800;2022-11-14T12:34:40;13.10;99.90
1976;DHT22;988;48.016;7.800;2022-11-14T12:37:23;13.10;99.90
1976;DHT22;988;48.016;7.800;2022-11-14T12:40:15;13.30;99.90
1976;DHT22;988;48.016;7.800;2022-11-14T12:42:46;13.30;99.90
1976;DHT22;988;48.016;7.800;2022-11-14T12:50:52;13.70;99.90
1976;DHT22;988;48.016;7.800;2022-11-14T13:07:38;13.50;99.90
1976;DHT22;988;48.016;7.800;2022-11-14T13:10:38;13.50;99.90
1976;DHT22;988;48.016;7.800;2022-11-14T13:13:09;13.40;99.90
1976;DHT22;988;48.016;7.800;2022-11-14T13:16:00;13.30;99.90
1976;DHT22;988;48.016;7.800;2022-11-14T13:19:22;13.20;99.90
1976;DHT22;988;48.016;7.800;2022-11-14T13:27:31;13.40;99.90
1976;DHT22;988;48.016;7.800;2022-11-14T13:29:57;13.60;99.90
1976;DHT22;988;48.016;7.800;2022-11-14T13:35:20;14.00;99.90
1976;DHT22;988;48.016;7.800;2022-11-14T13:46:17;14.00;99.90
1976;DHT22;988;48.016;7.800;2022-11-14T13:49:20;14.10;99.90
1976;DHT22;988;48.016;7.800;2022-11-14T13:51:51;14.00;99.90
1976;DHT22;988;48.016;7.800;2022-11-14T13:54:18;14.10;99.90
1976;DHT22;988;48.016;7.800;2022-11-14T13:56:54;14.20;99.90
1976;DHT22;988;48.016;7.800;2022-11-14T14:02:47;14.60;99.90
1976;DHT22;988;48.016;7.800;2022-11-14T14:08:18;14.80;99.90
1976;DHT22;988;48.016;7.800;2022-11-14T14:13:25;14.80;99.90
1976;DHT22;988;48.016;7.800;2022-11-14T14:16:58;14.90;99.90
1976;DHT22;988;48.016;7.800;2022-11-14T14:24:40;14.40;99.90
1976;DHT22;988;48.016;7.800;2022-11-14T14:30:10;14.20;99.90
1976;DHT22;988;48.016;7.800;2022-11-14T14:32:36;14.10;99.90
1976;DHT22;988;48.016;7.800;2022-11-14T14:35:24;14.20;99.90
1976;DHT22;988;48.016;7.800;2022-11-14T14:37:52;14.30;99.90
1976;DHT22;988;48.016;7.800;2022-11-14T14:42:51;14.30;99.90
1976;DHT22;988;48.016;7.800;2022-11-14T14:45:19;14.20;99.90
1976;DHT22;988;48.016;7.800;2022-11-14T14:47:48;14.00;99.90
1976;DHT22;988;48.016;7.800;2022-11-14T14:50:46;13.90;99.90
1976;DHT22;988;48.016;7.800;2022-11-14T14:53:21;13.90;99.90
1976;DHT22;988;48.016;7.800;2022-11-14T14:55:53;14.00;99.90
1976;DHT22;988;48.016;7.800;2022-11-14T15:00:59;13.80;99.90
1976;DHT22;988;48.016;7.800;2022-11-14T15:03:35;13.90;99.90
1976;DHT22;988;48.016;7.800;2022-11-14T15:06:16;13.90;99.90
1976;DHT22;988;48.016;7.800;2022-11-14T15:08:43;13.90;99.90
1976;DHT22;988;48.016;7.800;2022-11-14T15:11:10;13.90;99.90
1976;DHT22;988;48.016;7.800;2022-11-14T15:13:38;14.00;99.90
1976;DHT22;988;48.016;7.800;2022-11-14T15:16:05;13.90;99.90
1976;DHT22;988;48.016;7.800;2022-11-14T15:18:32;13.90;99.90
1976;DHT22;988;48.016;7.800;2022-11-14T15:21:06;14.00;99.90
1976;DHT22;988;48.016;7.800;2022-11-14T15:23:38;14.00;99.90
1976;DHT22;988;48.016;7.800;2022-11-14T15:26:26;14.00;99.90
1976;DHT22;988;48.016;7.800;2022-11-14T15:28:50;14.20;99.90
1976;DHT22;988;48.016;7.800;2022-11-14T15:31:20;14.20;99.90
1976;DHT22;988;48.016;7.800;2022-11-14T15:34:05;14.20;99.90
1976;DHT22;988;48.016;7.800;2022-11-14T15:36:30;14.30;99.90
1976;DHT22;988;48.016;7.800;2022-11-14T15:39:03;14.30;99.90
1976;DHT22;988;48.016;7.800;2022-11-14T15:41:32;14.20;99.90
1976;DHT22;988;48.016;7.800;2022-11-14T15:43:58;14.30;99.90
1976;DHT22;988;48.016;7.800;2022-11-14T15:48:59;14.30;99.90
1976;DHT22;988;48.016;7.800;2022-11-14T15:51:50;14.40;99.90
1976;DHT22;988;48.016;7.800;2022-11-14T15:54:33;14.40;99.90
1976;DHT22;988;48.016;7.800;2022-11-14T15:57:11;14.50;99.90
1976;DHT22;988;48.016;7.800;2022-11-14T15:59:36;14.50;99.90
1976;DHT22;988;48.016;7.800;2022-11-14T16:02:24;14.50;99.90
1976;DHT22;988;48.016;7.800;2022-11-14T16:04:52;14.60;99.70
1976;DHT22;988;48.016;7.800;2022-11-14T16:07:19;14.50;99.80
1976;DHT22;988;48.016;7.800;2022-11-14T16:09:45;14.70;99.40
1976;DHT22;988;48.016;7.800;2022-11-14T16:12:10;14.70;99.20
1976;DHT22;988;48.016;7.800;2022-11-14T16:14:36;14.50;98.80
1976;DHT22;988;48.016;7.800;2022-11-14T16:17:02;14.60;98.20
1976;DHT22;988;48.016;7.800;2022-11-14T16:19:28;14.60;97.60
1976;DHT22;988;48.016;7.800;2022-11-14T16:21:57;14.60;96.70
1976;DHT22;988;48.016;7.800;2022-11-14T16:24:27;14.70;95.70
1976;DHT22;988;48.016;7.800;2022-11-14T16:26:53;14.70;95.40
1976;DHT22;988;48.016;7.800;2022-11-14T16:29:18;14.70;95.20
1976;DHT22;988;48.016;7.800;2022-11-14T16:31:44;14.70;94.30
1976;DHT22;988;48.016;7.800;2022-11-14T16:34:15;14.80;94.30
1976;DHT22;988;48.016;7.800;2022-11-14T16:36:42;14.80;94.60
1976;DHT22;988;48.016;7.800;2022-11-14T16:39:10;14.70;93.80
1976;DHT22;988;48.016;7.800;2022-11-14T16:41:38;14.70;94.00
1976;DHT22;988;48.016;7.800;2022-11-14T16:44:04;14.80;93.50
1976;DHT22;988;48.016;7.800;2022-11-14T16:46:30;14.80;93.90
1976;DHT22;988;48.016;7.800;2022-11-14T16:48:56;14.90;93.10
1976;DHT22;988;48.016;7.800;2022-11-14T16:51:21;15.00;92.60
1976;DHT22;988;48.016;7.800;2022-11-14T16:53:47;14.90;92.60
1976;DHT22;988;48.016;7.800;2022-11-14T16:56:13;15.10;93.10
1976;DHT22;988;48.016;7.800;2022-11-14T16:58:39;14.80;93.90
1976;DHT22;988;48.016;7.800;2022-11-14T17:01:06;15.00;93.40
1976;DHT22;988;48.016;7.800;2022-11-14T17:03:32;14.90;92.40
1976;DHT22;988;48.016;7.800;2022-11-14T17:05:58;14.90;92.50
1976;DHT22;988;48.016;7.800;2022-11-14T17:08:24;15.10;91.80
1976;DHT22;988;48.016;7.800;2022-11-14T17:10:49;15.00;91.80
1976;DHT22;988;48.016;7.800;2022-11-14T17:13:15;15.20;90.90
1976;DHT22;988;48.016;7.800;2022-11-14T17:15:42;15.10;90.90
1976;DHT22;988;48.016;7.800;2022-11-14T17:18:08;15.10;93.10
1976;DHT22;988;48.016;7.800;2022-11-14T17:20:36;15.00;91.40
1976;DHT22;988;48.016;7.800;2022-11-14T17:23:03;15.00;92.00
1976;DHT22;988;48.016;7.800;2022-11-14T17:25:29;15.20;92.60
1976;DHT22;988;48.016;7.800;2022-11-14T17:27:54;15.10;90.40
1976;DHT22;988;48.016;7.800;2022-11-14T17:30:20;15.20;90.50
1976;DHT22;988;48.016;7.800;2022-11-14T17:32:46;15.20;90.30
1976;DHT22;988;48.016;7.800;2022-11-14T17:35:12;15.30;90.40
1976;DHT22;988;48.016;7.800;2022-11-14T17:37:38;15.20;90.50
1976;DHT22;988;48.016;7.800;2022-11-14T17:40:04;15.00;92.10
1976;DHT22;988;48.016;7.800;2022-11-14T17:42:29;15.00;92.30
1976;DHT22;988;48.016;7.800;2022-11-14T17:44:55;14.90;92.20
1976;DHT22;988;48.016;7.800;2022-11-14T17:47:25;15.30;90.20
1976;DHT22;988;48.016;7.800;2022-11-14T17:49:51;15.30;90.00
1976;DHT22;988;48.016;7.800;2022-11-14T17:52:17;15.20;88.70
1976;DHT22;988;48.016;7.800;2022-11-14T17:54:42;15.40;88.50
1976;DHT22;988;48.016;7.800;2022-11-14T17:57:08;15.40;88.40
1976;DHT22;988;48.016;7.800;2022-11-14T17:59:33;15.40;87.90
1976;DHT22;988;48.016;7.800;2022-11-14T18:02:00;15.40;86.60
1976;DHT22;988;48.016;7.800;2022-11-14T18:04:26;15.50;87.10
1976;DHT22;988;48.016;7.800;2022-11-14T18:06:53;15.50;86.80
1976;DHT22;988;48.016;7.800;2022-11-14T18:09:19;15.50;86.60
1976;DHT22;988;48.016;7.800;2022-11-14T18:11:44;15.40;86.00
1976;DHT22;988;48.016;7.800;2022-11-14T18:14:10;15.50;86.60
1976;DHT22;988;48.016;7.800;2022-11-14T18:16:37;15.50;86.50
1976;DHT22;988;48.016;7.800;2022-11-14T18:19:03;15.50;86.30